Terminal Aerodrome Forecast
Issued by NWS Detroit/Pontiac, MI

Home | Current Version | Previous Version | Text Only | Print | Product List | Glossary On
Versions: 1 2 3 4 5 6 7 8 9 10 11 12 13 14 15 16 17 18 19
721
FTUS43 KDTX 131736
TAFFNT
TAF
KFNT 131736Z 1318/1418 16010KT 1/2SM SN OVC010
     FM132000 12012KT 1/4SM +SN OVC006
     FM140100 08007KT 2SM -SHSN OVC012
     FM140500 01008KT P6SM BKN010
     FM141200 33009KT P6SM FEW040 SCT100=

USA.gov is the U.S. government's official web portal to all federal, state and local government web resources and services.